sensor_id;sensor_type;location;lat;lon;timestamp;pressure;altitude;pressure_sealevel;temperature;humidity
20015;BME280;61787;42.022;23.078;2023-02-13T00:00:59;98565.88;;;1.61;79.52
20015;BME280;61787;42.022;23.078;2023-02-13T00:02:01;98566.47;;;1.63;78.95
20015;BME280;61787;42.022;23.078;2023-02-13T00:03:03;98566.19;;;1.64;79.21
20015;BME280;61787;42.022;23.078;2023-02-13T00:04:05;98573.00;;;1.72;78.35
20015;BME280;61787;42.022;23.078;2023-02-13T00:05:07;98564.84;;;1.74;78.50
20015;BME280;61787;42.022;23.078;2023-02-13T00:06:08;98567.69;;;1.72;78.25
20015;BME280;61787;42.022;23.078;2023-02-13T00:07:10;98574.59;;;1.73;78.03
20015;BME280;61787;42.022;23.078;2023-02-13T00:08:12;98576.66;;;1.71;78.61
20015;BME280;61787;42.022;23.078;2023-02-13T00:09:14;98571.38;;;1.71;78.45
20015;BME280;61787;42.022;23.078;2023-02-13T00:10:16;98578.28;;;1.72;78.43
20015;BME280;61787;42.022;23.078;2023-02-13T00:11:18;98582.53;;;1.73;78.32
20015;BME280;61787;42.022;23.078;2023-02-13T00:12:20;98585.19;;;1.73;77.92
20015;BME280;61787;42.022;23.078;2023-02-13T00:13:22;98582.97;;;1.70;77.71
20015;BME280;61787;42.022;23.078;2023-02-13T00:14:24;98585.63;;;1.70;77.99
20015;BME280;61787;42.022;23.078;2023-02-13T00:15:25;98585.06;;;1.68;77.61
20015;BME280;61787;42.022;23.078;2023-02-13T00:16:27;98584.97;;;1.63;77.45
20015;BME280;61787;42.022;23.078;2023-02-13T00:17:29;98588.06;;;1.60;77.98
20015;BME280;61787;42.022;23.078;2023-02-13T00:18:34;98583.56;;;1.60;77.95
20015;BME280;61787;42.022;23.078;2023-02-13T00:19:36;98586.00;;;1.62;77.75
20015;BME280;61787;42.022;23.078;2023-02-13T00:20:38;98588.63;;;1.62;77.76
20015;BME280;61787;42.022;23.078;2023-02-13T00:21:39;98588.41;;;1.63;77.79
20015;BME280;61787;42.022;23.078;2023-02-13T00:22:41;98590.25;;;1.63;78.05
20015;BME280;61787;42.022;23.078;2023-02-13T00:23:43;98586.56;;;1.64;77.44
20015;BME280;61787;42.022;23.078;2023-02-13T00:24:44;98579.69;;;1.63;77.67
20015;BME280;61787;42.022;23.078;2023-02-13T00:25:46;98587.59;;;1.63;77.81
20015;BME280;61787;42.022;23.078;2023-02-13T00:26:48;98583.34;;;1.62;77.70
20015;BME280;61787;42.022;23.078;2023-02-13T00:27:50;98587.59;;;1.63;77.39
20015;BME280;61787;42.022;23.078;2023-02-13T00:28:52;98585.78;;;1.63;77.01
20015;BME280;61787;42.022;23.078;2023-02-13T00:29:54;98588.63;;;1.62;76.90
20015;BME280;61787;42.022;23.078;2023-02-13T00:31:11;98584.59;;;1.59;77.09
20015;BME280;61787;42.022;23.078;2023-02-13T00:32:13;98593.59;;;1.58;76.86
20015;BME280;61787;42.022;23.078;2023-02-13T00:33:15;98586.91;;;1.56;76.86
20015;BME280;61787;42.022;23.078;2023-02-13T00:34:17;98577.84;;;1.52;77.09
20015;BME280;61787;42.022;23.078;2023-02-13T00:35:18;98582.31;;;1.51;77.37
20015;BME280;61787;42.022;23.078;2023-02-13T00:36:21;98583.94;;;1.52;77.25
20015;BME280;61787;42.022;23.078;2023-02-13T00:37:23;98583.72;;;1.54;77.26
20015;BME280;61787;42.022;23.078;2023-02-13T00:38:25;98588.41;;;1.52;77.13
20015;BME280;61787;42.022;23.078;2023-02-13T00:39:27;98585.19;;;1.50;76.98
20015;BME280;61787;42.022;23.078;2023-02-13T00:40:28;98591.75;;;1.47;76.88
20015;BME280;61787;42.022;23.078;2023-02-13T00:41:30;98587.72;;;1.45;76.90
20015;BME280;61787;42.022;23.078;2023-02-13T00:42:31;98578.75;;;1.46;76.79
20015;BME280;61787;42.022;23.078;2023-02-13T00:43:34;98581.97;;;1.48;77.05
20015;BME280;61787;42.022;23.078;2023-02-13T00:44:35;98579.91;;;1.50;76.56
20015;BME280;61787;42.022;23.078;2023-02-13T00:45:37;98571.84;;;1.45;76.39
20015;BME280;61787;42.022;23.078;2023-02-13T00:46:39;98574.75;;;1.43;76.43
20015;BME280;61787;42.022;23.078;2023-02-13T00:47:40;98574.75;;;1.43;76.77
20015;BME280;61787;42.022;23.078;2023-02-13T00:48:42;98573.94;;;1.43;77.38
20015;BME280;61787;42.022;23.078;2023-02-13T00:49:44;98574.94;;;1.18;78.61
20015;BME280;61787;42.022;23.078;2023-02-13T00:50:46;98575.41;;;0.92;80.21
20015;BME280;61787;42.022;23.078;2023-02-13T00:51:48;98578.44;;;0.66;82.09
20015;BME280;61787;42.022;23.078;2023-02-13T00:52:49;98576.53;;;0.43;83.66
20015;BME280;61787;42.022;23.078;2023-02-13T00:53:51;98581.84;;;0.25;84.17
20015;BME280;61787;42.022;23.078;2023-02-13T00:54:53;98577.47;;;0.19;85.46
20015;BME280;61787;42.022;23.078;2023-02-13T00:55:54;98575.84;;;0.18;85.46
20015;BME280;61787;42.022;23.078;2023-02-13T00:56:56;98589.25;;;0.16;85.65
20015;BME280;61787;42.022;23.078;2023-02-13T00:57:57;98586.19;;;0.19;86.34
20015;BME280;61787;42.022;23.078;2023-02-13T00:58:59;98578.13;;;0.14;85.89
20015;BME280;61787;42.022;23.078;2023-02-13T01:00:01;98586.94;;;0.08;86.16
20015;BME280;61787;42.022;23.078;2023-02-13T01:01:02;98583.34;;;0.03;86.51
20015;BME280;61787;42.022;23.078;2023-02-13T01:02:04;98583.69;;;0.06;87.17
20015;BME280;61787;42.022;23.078;2023-02-13T01:03:06;98582.81;;;0.12;87.12
20015;BME280;61787;42.022;23.078;2023-02-13T01:04:07;98587.56;;;0.22;86.65
20015;BME280;61787;42.022;23.078;2023-02-13T01:05:09;98582.66;;;0.25;86.27
20015;BME280;61787;42.022;23.078;2023-02-13T01:06:11;98586.22;;;0.31;86.00
20015;BME280;61787;42.022;23.078;2023-02-13T01:07:12;98582.47;;;0.38;85.76
20015;BME280;61787;42.022;23.078;2023-02-13T01:08:17;98581.59;;;0.45;85.12
20015;BME280;61787;42.022;23.078;2023-02-13T01:09:19;98586.41;;;0.48;84.75
20015;BME280;61787;42.022;23.078;2023-02-13T01:10:21;98588.00;;;0.49;84.06
20015;BME280;61787;42.022;23.078;2023-02-13T01:11:22;98584.34;;;0.50;84.61
20015;BME280;61787;42.022;23.078;2023-02-13T01:12:24;98588.00;;;0.49;83.96
20015;BME280;61787;42.022;23.078;2023-02-13T01:13:26;98587.28;;;0.41;84.43
20015;BME280;61787;42.022;23.078;2023-02-13T01:14:27;98585.25;;;0.43;84.49
20015;BME280;61787;42.022;23.078;2023-02-13T01:15:29;98590.06;;;0.47;84.69
20015;BME280;61787;42.022;23.078;2023-02-13T01:16:31;98595.78;;;0.43;83.91
20015;BME280;61787;42.022;23.078;2023-02-13T01:17:32;98591.41;;;0.37;84.86
20015;BME280;61787;42.022;23.078;2023-02-13T01:18:34;98593.91;;;0.32;84.75
20015;BME280;61787;42.022;23.078;2023-02-13T01:19:36;98592.03;;;0.21;84.74
20015;BME280;61787;42.022;23.078;2023-02-13T01:20:37;98595.78;;;0.14;85.61
20015;BME280;61787;42.022;23.078;2023-02-13T01:21:39;98600.41;;;0.00;86.17
20015;BME280;61787;42.022;23.078;2023-02-13T01:22:40;98599.75;;;-0.14;87.26
20015;BME280;61787;42.022;23.078;2023-02-13T01:23:45;98603.84;;;-0.18;87.19
20015;BME280;61787;42.022;23.078;2023-02-13T01:24:47;98602.31;;;-0.25;88.00
20015;BME280;61787;42.022;23.078;2023-02-13T01:25:48;98606.84;;;-0.32;88.51
20015;BME280;61787;42.022;23.078;2023-02-13T01:26:52;98601.50;;;-0.44;89.11
20015;BME280;61787;42.022;23.078;2023-02-13T01:27:53;98606.41;;;-0.48;89.91
20015;BME280;61787;42.022;23.078;2023-02-13T01:28:55;98603.00;;;-0.55;90.36
20015;BME280;61787;42.022;23.078;2023-02-13T01:29:58;98600.66;;;-0.63;90.44
20015;BME280;61787;42.022;23.078;2023-02-13T01:31:00;98606.94;;;-0.64;91.71
20015;BME280;61787;42.022;23.078;2023-02-13T01:32:03;98609.28;;;-0.74;91.74
20015;BME280;61787;42.022;23.078;2023-02-13T01:33:05;98603.69;;;-0.84;92.59
20015;BME280;61787;42.022;23.078;2023-02-13T01:34:07;98606.16;;;-0.89;93.30
20015;BME280;61787;42.022;23.078;2023-02-13T01:35:09;98604.97;;;-0.93;93.56
20015;BME280;61787;42.022;23.078;2023-02-13T01:36:11;98604.75;;;-0.92;93.31
20015;BME280;61787;42.022;23.078;2023-02-13T01:37:14;98610.66;;;-0.96;94.07
20015;BME280;61787;42.022;23.078;2023-02-13T01:38:17;98612.28;;;-0.95;93.67
20015;BME280;61787;42.022;23.078;2023-02-13T01:39:19;98613.09;;;-0.95;94.32
20015;BME280;61787;42.022;23.078;2023-02-13T01:40:20;98617.09;;;-0.92;94.02
20015;BME280;61787;42.022;23.078;2023-02-13T01:41:23;98619.16;;;-0.94;93.58
20015;BME280;61787;42.022;23.078;2023-02-13T01:42:28;98617.53;;;-0.95;93.99
20015;BME280;61787;42.022;23.078;2023-02-13T01:43:52;98619.19;;;-1.01;93.63
20015;BME280;61787;42.022;23.078;2023-02-13T01:45:02;98618.88;;;-1.11;94.77
20015;BME280;61787;42.022;23.078;2023-02-13T01:46:04;98613.97;;;-1.07;94.71
20015;BME280;61787;42.022;23.078;2023-02-13T01:47:08;98619.00;;;-0.99;94.84
20015;BME280;61787;42.022;23.078;2023-02-13T01:48:20;98614.47;;;-0.92;94.34
20015;BME280;61787;42.022;23.078;2023-02-13T01:49:24;98613.22;;;-0.83;94.00
20015;BME280;61787;42.022;23.078;2023-02-13T01:50:39;98612.59;;;-0.85;92.40
20015;BME280;61787;42.022;23.078;2023-02-13T01:51:41;98610.56;;;-0.83;91.67
20015;BME280;61787;42.022;23.078;2023-02-13T01:54:05;98617.53;;;-0.95;90.52
20015;BME280;61787;42.022;23.078;2023-02-13T01:55:08;98611.13;;;-1.06;90.90
20015;BME280;61787;42.022;23.078;2023-02-13T01:56:27;98611.66;;;-1.22;92.30
20015;BME280;61787;42.022;23.078;2023-02-13T01:57:30;98611.38;;;-1.39;92.97
20015;BME280;61787;42.022;23.078;2023-02-13T01:58:34;98613.53;;;-1.60;94.15
20015;BME280;61787;42.022;23.078;2023-02-13T01:59:52;98613.97;;;-1.70;95.14
20015;BME280;61787;42.022;23.078;2023-02-13T02:00:56;98617.00;;;-1.66;95.79
20015;BME280;61787;42.022;23.078;2023-02-13T02:02:00;98619.16;;;-1.57;96.06
20015;BME280;61787;42.022;23.078;2023-02-13T02:03:07;98613.06;;;-1.51;95.43
20015;BME280;61787;42.022;23.078;2023-02-13T02:04:15;98618.28;;;-1.44;95.56
20015;BME280;61787;42.022;23.078;2023-02-13T02:05:21;98619.47;;;-1.40;94.71
20015;BME280;61787;42.022;23.078;2023-02-13T02:06:27;98615.41;;;-1.36;94.88
20015;BME280;61787;42.022;23.078;2023-02-13T02:07:30;98623.44;;;-1.24;94.24
20015;BME280;61787;42.022;23.078;2023-02-13T02:08:33;98617.72;;;-1.21;93.69
20015;BME280;61787;42.022;23.078;2023-02-13T02:09:38;98621.38;;;-1.22;93.49
20015;BME280;61787;42.022;23.078;2023-02-13T02:10:41;98616.88;;;-1.15;93.30
20015;BME280;61787;42.022;23.078;2023-02-13T02:14:07;98630.22;;;-0.86;92.24
20015;BME280;61787;42.022;23.078;2023-02-13T02:15:09;98635.28;;;-0.84;91.95
20015;BME280;61787;42.022;23.078;2023-02-13T02:16:11;98632.22;;;-0.81;91.41
20015;BME280;61787;42.022;23.078;2023-02-13T02:17:13;98631.34;;;-0.75;91.30
20015;BME280;61787;42.022;23.078;2023-02-13T02:18:18;98633.13;;;-0.69;90.82
20015;BME280;61787;42.022;23.078;2023-02-13T02:19:38;98632.16;;;-0.74;90.60
20015;BME280;61787;42.022;23.078;2023-02-13T02:22:13;98630.66;;;-0.64;90.56
20015;BME280;61787;42.022;23.078;2023-02-13T02:23:52;98637.41;;;-0.50;89.99
20015;BME280;61787;42.022;23.078;2023-02-13T02:28:20;98629.97;;;-0.34;87.46
20015;BME280;61787;42.022;23.078;2023-02-13T02:30:42;98628.66;;;-0.25;86.91
20015;BME280;61787;42.022;23.078;2023-02-13T02:33:16;98635.84;;;-0.14;85.83
20015;BME280;61787;42.022;23.078;2023-02-13T02:36:04;98637.75;;;-0.03;84.76
20015;BME280;61787;42.022;23.078;2023-02-13T02:40:11;98644.94;;;0.08;83.12
20015;BME280;61787;42.022;23.078;2023-02-13T02:41:31;98648.97;;;0.11;82.57
20015;BME280;61787;42.022;23.078;2023-02-13T02:42:49;98647.13;;;0.11;82.54
20015;BME280;61787;42.022;23.078;2023-02-13T02:44:19;98649.34;;;0.14;82.24
20015;BME280;61787;42.022;23.078;2023-02-13T02:50:03;98653.28;;;0.23;80.67
20015;BME280;61787;42.022;23.078;2023-02-13T02:51:29;98655.94;;;0.23;80.98
20015;BME280;61787;42.022;23.078;2023-02-13T02:52:52;98659.16;;;0.25;80.22
20015;BME280;61787;42.022;23.078;2023-02-13T02:54:14;98661.81;;;0.25;80.08
20015;BME280;61787;42.022;23.078;2023-02-13T02:57:26;98661.34;;;0.28;79.91
20015;BME280;61787;42.022;23.078;2023-02-13T02:59:02;98659.31;;;0.30;80.05
20015;BME280;61787;42.022;23.078;2023-02-13T03:00:25;98667.06;;;0.25;80.18
20015;BME280;61787;42.022;23.078;2023-02-13T03:01:48;98666.03;;;0.26;79.55
20015;BME280;61787;42.022;23.078;2023-02-13T03:03:22;98670.00;;;0.17;80.10
20015;BME280;61787;42.022;23.078;2023-02-13T03:04:50;98667.22;;;0.12;80.84
20015;BME280;61787;42.022;23.078;2023-02-13T03:06:35;98667.72;;;0.03;80.79
20015;BME280;61787;42.022;23.078;2023-02-13T03:07:38;98669.19;;;-0.02;80.76
20015;BME280;61787;42.022;23.078;2023-02-13T03:08:43;98667.94;;;0.01;81.20
20015;BME280;61787;42.022;23.078;2023-02-13T03:10:08;98671.03;;;-0.02;80.50
20015;BME280;61787;42.022;23.078;2023-02-13T03:11:29;98674.25;;;0.00;81.64
20015;BME280;61787;42.022;23.078;2023-02-13T03:14:19;98680.53;;;-0.01;83.49
20015;BME280;61787;42.022;23.078;2023-02-13T03:15:23;98677.97;;;-0.08;82.86
20015;BME280;61787;42.022;23.078;2023-02-13T03:16:26;98680.25;;;-0.11;82.61
20015;BME280;61787;42.022;23.078;2023-02-13T03:17:46;98679.66;;;-0.13;81.69
20015;BME280;61787;42.022;23.078;2023-02-13T03:19:12;98676.25;;;-0.38;82.98
20015;BME280;61787;42.022;23.078;2023-02-13T03:20:52;98689.38;;;-0.57;83.46
20015;BME280;61787;42.022;23.078;2023-02-13T03:23:45;98693.19;;;-0.53;83.67
20015;BME280;61787;42.022;23.078;2023-02-13T03:25:06;98692.59;;;-0.55;84.34
20015;BME280;61787;42.022;23.078;2023-02-13T03:34:51;98693.75;;;-2.09;93.19
20015;BME280;61787;42.022;23.078;2023-02-13T03:38:02;98701.50;;;-2.21;95.28
20015;BME280;61787;42.022;23.078;2023-02-13T03:40:35;98702.66;;;-2.03;95.29
20015;BME280;61787;42.022;23.078;2023-02-13T03:42:04;98702.63;;;-1.90;94.32
20015;BME280;61787;42.022;23.078;2023-02-13T03:43:11;98703.41;;;-1.83;93.68
20015;BME280;61787;42.022;23.078;2023-02-13T03:45:44;98690.81;;;-1.68;92.89
20015;BME280;61787;42.022;23.078;2023-02-13T03:46:59;98700.16;;;-1.72;92.50
20015;BME280;61787;42.022;23.078;2023-02-13T03:48:04;98705.59;;;-1.74;92.85
20015;BME280;61787;42.022;23.078;2023-02-13T03:49:42;98706.63;;;-1.75;92.62
20015;BME280;61787;42.022;23.078;2023-02-13T03:51:05;98701.22;;;-1.86;92.84
20015;BME280;61787;42.022;23.078;2023-02-13T03:52:17;98704.84;;;-1.81;93.13
20015;BME280;61787;42.022;23.078;2023-02-13T03:53:25;98709.84;;;-1.73;93.66
20015;BME280;61787;42.022;23.078;2023-02-13T03:55:54;98715.91;;;-1.72;92.73
20015;BME280;61787;42.022;23.078;2023-02-13T03:57:19;98707.47;;;-1.81;92.12
20015;BME280;61787;42.022;23.078;2023-02-13T03:58:43;98703.84;;;-1.93;92.70
20015;BME280;61787;42.022;23.078;2023-02-13T04:00:09;98710.34;;;-1.95;93.54
20015;BME280;61787;42.022;23.078;2023-02-13T04:01:14;98707.91;;;-1.90;93.24
20015;BME280;61787;42.022;23.078;2023-02-13T04:02:19;98709.47;;;-1.89;92.87
20015;BME280;61787;42.022;23.078;2023-02-13T04:03:32;98713.53;;;-1.80;93.11
20015;BME280;61787;42.022;23.078;2023-02-13T04:04:45;98715.13;;;-1.79;91.65
20015;BME280;61787;42.022;23.078;2023-02-13T04:06:41;98712.69;;;-1.74;92.01
20015;BME280;61787;42.022;23.078;2023-02-13T04:07:16;98713.91;;;-1.70;91.24
20015;BME280;61787;42.022;23.078;2023-02-13T04:08:30;98711.47;;;-1.65;91.18
20015;BME280;61787;42.022;23.078;2023-02-13T04:09:35;98707.03;;;-1.71;91.09
20015;BME280;61787;42.022;23.078;2023-02-13T04:10:45;98715.16;;;-1.86;91.09
20015;BME280;61787;42.022;23.078;2023-02-13T04:11:59;98718.41;;;-2.10;92.70
20015;BME280;61787;42.022;23.078;2023-02-13T04:13:09;98722.47;;;-2.14;93.48
20015;BME280;61787;42.022;23.078;2023-02-13T04:14:19;98716.41;;;-2.01;93.79
20015;BME280;61787;42.022;23.078;2023-02-13T04:15:30;98719.59;;;-1.86;93.76
20015;BME280;61787;42.022;23.078;2023-02-13T04:16:40;98712.28;;;-1.71;93.22
20015;BME280;61787;42.022;23.078;2023-02-13T04:17:47;98712.44;;;-1.59;92.05
20015;BME280;61787;42.022;23.078;2023-02-13T04:18:51;98707.78;;;-1.64;91.69
20015;BME280;61787;42.022;23.078;2023-02-13T04:19:53;98715.91;;;-1.72;91.61
20015;BME280;61787;42.022;23.078;2023-02-13T04:20:55;98714.72;;;-1.69;91.20
20015;BME280;61787;42.022;23.078;2023-02-13T04:21:59;98727.44;;;-1.73;91.04
20015;BME280;61787;42.022;23.078;2023-02-13T04:23:06;98718.56;;;-1.72;91.13
20015;BME280;61787;42.022;23.078;2023-02-13T04:24:09;98723.16;;;-1.61;91.57
20015;BME280;61787;42.022;23.078;2023-02-13T04:25:12;98722.34;;;-1.55;90.74
20015;BME280;61787;42.022;23.078;2023-02-13T04:26:17;98721.13;;;-1.59;90.49
20015;BME280;61787;42.022;23.078;2023-02-13T04:27:19;98722.00;;;-1.72;90.55
20015;BME280;61787;42.022;23.078;2023-02-13T04:28:21;98719.78;;;-1.81;91.14
20015;BME280;61787;42.022;23.078;2023-02-13T04:29:24;98720.41;;;-1.86;91.86
20015;BME280;61787;42.022;23.078;2023-02-13T04:30:26;98724.88;;;-1.86;92.89
20015;BME280;61787;42.022;23.078;2023-02-13T04:31:27;98721.63;;;-1.82;92.93
20015;BME280;61787;42.022;23.078;2023-02-13T04:32:29;98722.19;;;-1.73;92.72
20015;BME280;61787;42.022;23.078;2023-02-13T04:33:31;98718.13;;;-1.62;92.12
20015;BME280;61787;42.022;23.078;2023-02-13T04:34:32;98721.09;;;-1.52;91.61
20015;BME280;61787;42.022;23.078;2023-02-13T04:35:34;98719.47;;;-1.47;91.60
20015;BME280;61787;42.022;23.078;2023-02-13T04:36:35;98721.09;;;-1.46;90.56
20015;BME280;61787;42.022;23.078;2023-02-13T04:37:37;98730.34;;;-1.37;90.23
20015;BME280;61787;42.022;23.078;2023-02-13T04:38:39;98724.88;;;-1.28;89.73
20015;BME280;61787;42.022;23.078;2023-02-13T04:39:40;98722.25;;;-1.28;89.43
20015;BME280;61787;42.022;23.078;2023-02-13T04:40:42;98731.53;;;-1.33;88.46
20015;BME280;61787;42.022;23.078;2023-02-13T04:41:43;98728.97;;;-1.39;88.91
20015;BME280;61787;42.022;23.078;2023-02-13T04:42:48;98727.91;;;-1.32;88.25
20015;BME280;61787;42.022;23.078;2023-02-13T04:43:50;98729.31;;;-1.29;88.44
20015;BME280;61787;42.022;23.078;2023-02-13T04:44:52;98735.56;;;-1.23;88.07
20015;BME280;61787;42.022;23.078;2023-02-13T04:45:54;98719.78;;;-1.23;87.61
20015;BME280;61787;42.022;23.078;2023-02-13T04:46:56;98725.63;;;-1.21;87.51
20015;BME280;61787;42.022;23.078;2023-02-13T04:47:58;98726.41;;;-1.14;87.90
20015;BME280;61787;42.022;23.078;2023-02-13T04:48:59;98731.84;;;-1.09;87.77
20015;BME280;61787;42.022;23.078;2023-02-13T04:50:01;98731.59;;;-1.01;86.52
20015;BME280;61787;42.022;23.078;2023-02-13T04:51:03;98728.56;;;-0.98;86.20
20015;BME280;61787;42.022;23.078;2023-02-13T04:52:04;98728.13;;;-0.95;85.99
20015;BME280;61787;42.022;23.078;2023-02-13T04:53:06;98728.94;;;-0.95;85.43
20015;BME280;61787;42.022;23.078;2023-02-13T04:54:09;98727.50;;;-0.97;85.67
20015;BME280;61787;42.022;23.078;2023-02-13T04:55:11;98726.31;;;-1.01;85.36
20015;BME280;61787;42.022;23.078;2023-02-13T04:56:13;98729.41;;;-1.04;85.09
20015;BME280;61787;42.022;23.078;2023-02-13T04:57:15;98724.31;;;-0.99;84.94
20015;BME280;61787;42.022;23.078;2023-02-13T04:58:17;98729.75;;;-0.94;84.64
20015;BME280;61787;42.022;23.078;2023-02-13T04:59:18;98731.75;;;-0.90;84.90
20015;BME280;61787;42.022;23.078;2023-02-13T05:00:21;98740.63;;;-0.84;83.92
20015;BME280;61787;42.022;23.078;2023-02-13T05:01:23;98734.72;;;-0.79;84.27
20015;BME280;61787;42.022;23.078;2023-02-13T05:02:25;98737.13;;;-0.78;83.76
20015;BME280;61787;42.022;23.078;2023-02-13T05:03:27;98739.34;;;-0.75;83.82
20015;BME280;61787;42.022;23.078;2023-02-13T05:04:28;98739.72;;;-0.71;83.78
20015;BME280;61787;42.022;23.078;2023-02-13T05:05:30;98742.75;;;-0.68;82.59
20015;BME280;61787;42.022;23.078;2023-02-13T05:06:31;98741.97;;;-0.75;82.74
20015;BME280;61787;42.022;23.078;2023-02-13T05:07:33;98745.88;;;-0.84;81.80
20015;BME280;61787;42.022;23.078;2023-02-13T05:08:35;98746.28;;;-0.87;81.93
20015;BME280;61787;42.022;23.078;2023-02-13T05:09:36;98738.38;;;-0.87;81.75
20015;BME280;61787;42.022;23.078;2023-02-13T05:10:40;98742.44;;;-0.84;81.52
20015;BME280;61787;42.022;23.078;2023-02-13T05:11:42;98743.84;;;-0.82;82.02
20015;BME280;61787;42.022;23.078;2023-02-13T05:12:43;98743.84;;;-0.82;81.91
20015;BME280;61787;42.022;23.078;2023-02-13T05:13:45;98747.16;;;-0.93;81.79
20015;BME280;61787;42.022;23.078;2023-02-13T05:14:47;98739.75;;;-1.09;82.78
20015;BME280;61787;42.022;23.078;2023-02-13T05:15:48;98746.69;;;-1.21;87.36
20015;BME280;61787;42.022;23.078;2023-02-13T05:16:50;98734.97;;;-1.25;88.17
20015;BME280;61787;42.022;23.078;2023-02-13T05:17:52;98751.19;;;-1.28;88.80
20015;BME280;61787;42.022;23.078;2023-02-13T05:18:54;98751.59;;;-1.32;88.13
20015;BME280;61787;42.022;23.078;2023-02-13T05:19:55;98754.22;;;-1.38;87.27
20015;BME280;61787;42.022;23.078;2023-02-13T05:20:57;98752.22;;;-1.43;87.04
20015;BME280;61787;42.022;23.078;2023-02-13T05:22:17;98752.66;;;-1.46;86.88
20015;BME280;61787;42.022;23.078;2023-02-13T05:23:37;98756.34;;;-1.60;87.10
20015;BME280;61787;42.022;23.078;2023-02-13T05:24:38;98753.09;;;-1.55;87.61
20015;BME280;61787;42.022;23.078;2023-02-13T05:25:40;98755.91;;;-1.44;87.35
20015;BME280;61787;42.022;23.078;2023-02-13T05:26:42;98749.38;;;-1.35;86.50
20015;BME280;61787;42.022;23.078;2023-02-13T05:27:44;98751.19;;;-1.28;86.98
20015;BME280;61787;42.022;23.078;2023-02-13T05:28:45;98752.56;;;-1.26;87.05
20015;BME280;61787;42.022;23.078;2023-02-13T05:30:06;98749.75;;;-1.24;86.51
20015;BME280;61787;42.022;23.078;2023-02-13T05:31:08;98756.25;;;-1.34;86.54
20015;BME280;61787;42.022;23.078;2023-02-13T05:32:09;98755.28;;;-1.46;86.93
20015;BME280;61787;42.022;23.078;2023-02-13T05:33:11;98756.31;;;-1.53;87.30
20015;BME280;61787;42.022;23.078;2023-02-13T05:34:13;98759.94;;;-1.48;88.05
20015;BME280;61787;42.022;23.078;2023-02-13T05:35:15;98756.09;;;-1.39;87.31
20015;BME280;61787;42.022;23.078;2023-02-13T05:36:16;98764.94;;;-1.33;87.26
20015;BME280;61787;42.022;23.078;2023-02-13T05:37:18;98757.47;;;-1.30;87.63
20015;BME280;61787;42.022;23.078;2023-02-13T05:38:20;98758.72;;;-1.39;86.87
20015;BME280;61787;42.022;23.078;2023-02-13T05:39:21;98756.91;;;-1.45;87.11
20015;BME280;61787;42.022;23.078;2023-02-13T05:40:23;98761.16;;;-1.44;89.19
20015;BME280;61787;42.022;23.078;2023-02-13T05:41:25;98763.00;;;-1.51;89.20
20015;BME280;61787;42.022;23.078;2023-02-13T05:42:26;98768.91;;;-1.68;88.90
20015;BME280;61787;42.022;23.078;2023-02-13T05:43:28;98769.75;;;-1.81;89.41
20015;BME280;61787;42.022;23.078;2023-02-13T05:44:30;98764.69;;;-1.89;89.93
20015;BME280;61787;42.022;23.078;2023-02-13T05:45:32;98766.13;;;-1.93;89.91
20015;BME280;61787;42.022;23.078;2023-02-13T05:46:36;98764.91;;;-1.91;90.36
20015;BME280;61787;42.022;23.078;2023-02-13T05:47:39;98770.16;;;-1.84;90.35
20015;BME280;61787;42.022;23.078;2023-02-13T05:48:41;98767.72;;;-1.79;89.64
20015;BME280;61787;42.022;23.078;2023-02-13T05:49:42;98764.44;;;-1.68;89.05
20015;BME280;61787;42.022;23.078;2023-02-13T05:50:45;98762.63;;;-1.61;88.76
20015;BME280;61787;42.022;23.078;2023-02-13T05:51:48;98770.88;;;-1.51;88.07
20015;BME280;61787;42.022;23.078;2023-02-13T05:52:49;98765.19;;;-1.41;87.55
20015;BME280;61787;42.022;23.078;2023-02-13T05:53:51;98770.00;;;-1.32;86.91
20015;BME280;61787;42.022;23.078;2023-02-13T05:54:53;98769.78;;;-1.23;86.80
20015;BME280;61787;42.022;23.078;2023-02-13T05:55:55;98766.09;;;-1.16;86.29
20015;BME280;61787;42.022;23.078;2023-02-13T05:56:56;98771.91;;;-1.07;85.72
20015;BME280;61787;42.022;23.078;2023-02-13T05:57:58;98762.19;;;-1.00;85.45
20015;BME280;61787;42.022;23.078;2023-02-13T05:59:00;98780.78;;;-0.95;85.43
20015;BME280;61787;42.022;23.078;2023-02-13T06:00:03;98766.41;;;-0.93;85.31
20015;BME280;61787;42.022;23.078;2023-02-13T06:01:04;98771.03;;;-0.88;85.25
20015;BME280;61787;42.022;23.078;2023-02-13T06:02:06;98771.84;;;-0.88;85.35
20015;BME280;61787;42.022;23.078;2023-02-13T06:03:08;98772.22;;;-0.84;85.28
20015;BME280;61787;42.022;23.078;2023-02-13T06:04:09;98770.16;;;-0.82;84.63
20015;BME280;61787;42.022;23.078;2023-02-13T06:05:11;98766.53;;;-0.81;84.49
20015;BME280;61787;42.022;23.078;2023-02-13T06:06:13;98769.31;;;-0.76;84.77
20015;BME280;61787;42.022;23.078;2023-02-13T06:07:14;98777.00;;;-0.68;85.02
20015;BME280;61787;42.022;23.078;2023-02-13T06:08:16;98772.47;;;-0.61;84.74
20015;BME280;61787;42.022;23.078;2023-02-13T06:09:18;98767.97;;;-0.54;84.40
20015;BME280;61787;42.022;23.078;2023-02-13T06:10:19;98765.50;;;-0.49;84.09
20015;BME280;61787;42.022;23.078;2023-02-13T06:11:21;98769.94;;;-0.43;83.78
20015;BME280;61787;42.022;23.078;2023-02-13T06:12:22;98765.22;;;-0.40;83.45
20015;BME280;61787;42.022;23.078;2023-02-13T06:13:24;98775.59;;;-0.46;83.34
20015;BME280;61787;42.022;23.078;2023-02-13T06:14:26;98774.75;;;-0.39;83.19
20015;BME280;61787;42.022;23.078;2023-02-13T06:15:28;98779.78;;;-0.31;83.35
20015;BME280;61787;42.022;23.078;2023-02-13T06:16:30;98771.81;;;-0.25;82.65
20015;BME280;61787;42.022;23.078;2023-02-13T06:17:31;98779.66;;;-0.18;82.85
20015;BME280;61787;42.022;23.078;2023-02-13T06:18:33;98779.03;;;-0.14;82.77
20015;BME280;61787;42.022;23.078;2023-02-13T06:19:35;98778.66;;;-0.17;82.59
20015;BME280;61787;42.022;23.078;2023-02-13T06:20:37;98779.81;;;-0.13;82.84
20015;BME280;61787;42.022;23.078;2023-02-13T06:21:38;98773.94;;;-0.15;82.44
20015;BME280;61787;42.022;23.078;2023-02-13T06:22:40;98776.44;;;-0.20;82.58
20015;BME280;61787;42.022;23.078;2023-02-13T06:23:42;98777.88;;;-0.24;83.38
20015;BME280;61787;42.022;23.078;2023-02-13T06:24:43;98780.97;;;-0.27;83.02